KBOI/BOI METAR and TAF weather

Enter ICAO airport designator
Station Type Date Time Source
KBOI METAR 2022/01/26 19:53 UTC NOAA

KBOI 261953Z 20004KT 10SM OVC014 M03/M06 A3037 RMK AO2 SNE1859 SLP311 P0000 T10331061


Station Type Date Time Source
KBOI Decoded METAR 2022/01/26 19:53 UTC NOAA

BOISE AIR TERMINAL, ID, United States (KBOI) 43-34N 116-14W 875M
Jan 26, 2022 - 02:53 PM EST / 2022.01.26 1953 UTC
Wind: from the SSW (200 degrees) at 5 MPH (4 KT):0
Visibility: 10 mile(s):0
Sky conditions: overcast
Precipitation last hour: A trace
Temperature: 26.1 F (-3.3 C)
Windchill: 19 F (-7 C):1
Dew Point: 21.0 F (-6.1 C)
Relative Humidity: 80%
Pressure (altimeter): 30.37 in. Hg (1028 hPa)
ob: KBOI 261953Z 20004KT 10SM OVC014 M03/M06 A3037 RMK AO2 SNE1859 SLP311 P0000 T10331061
cycle: 20

Station Type Date Time Source
KBOI TAF 2022/01/26 19:33 UTC NOAA

TAF
AMD KBOI 261830Z 2619/2718 13007KT P6SM OVC015
TEMPO 2619/2621 2SM -SN OVC010

Example: see airport list